createdAt,value
2019-05-05T00:02:50.087Z,8.27
2019-05-05T00:07:54.070Z,8.25
2019-05-05T00:13:15.017Z,8.24
2019-05-05T00:18:20.432Z,8.28
2019-05-05T00:23:25.211Z,8.24
2019-05-05T00:28:27.465Z,8.24
2019-05-05T00:33:29.530Z,8.21
2019-05-05T00:38:31.565Z,8.19
2019-05-05T00:43:35.425Z,8.13
2019-05-05T00:48:44.459Z,8.13
2019-05-05T00:53:46.726Z,8.10
2019-05-05T00:58:55.264Z,8.07
2019-05-05T01:03:57.444Z,8.01
2019-05-05T01:08:59.490Z,7.94
2019-05-05T01:14:01.651Z,7.91
2019-05-05T01:19:04.522Z,7.95
2019-05-05T01:24:06.941Z,7.99
2019-05-05T01:29:10.944Z,7.91
2019-05-05T01:34:35.307Z,7.93
2019-05-05T01:39:45.228Z,7.88
2019-05-05T01:44:47.405Z,7.82
2019-05-05T01:49:49.541Z,7.82
2019-05-05T01:54:51.596Z,7.81
2019-05-05T01:59:55.230Z,7.80
2019-05-05T02:04:57.408Z,7.77
2019-05-05T02:09:59.459Z,7.73
2019-05-05T02:15:01.746Z,7.71
2019-05-05T02:20:05.250Z,7.72
2019-05-05T02:25:07.678Z,7.71
2019-05-05T02:30:27.828Z,7.71
2019-05-05T02:35:29.946Z,7.68
2019-05-05T02:40:34.990Z,7.60
2019-05-05T02:45:50.019Z,7.56
2019-05-05T02:51:00.030Z,7.56
2019-05-05T02:56:04.294Z,7.52
2019-05-05T03:01:16.625Z,7.52
2019-05-05T03:06:18.685Z,7.47
2019-05-05T03:11:20.992Z,7.43
2019-05-05T03:16:27.242Z,7.42
2019-05-05T03:21:29.375Z,7.42
2019-05-05T03:26:33.880Z,7.40
2019-05-05T03:31:36.046Z,7.40
2019-05-05T03:36:39.900Z,7.42
2019-05-05T03:41:51.209Z,7.39
2019-05-05T03:46:54.427Z,7.37
2019-05-05T03:51:57.176Z,7.35
2019-05-05T03:57:08.131Z,7.37
2019-05-05T04:02:23.453Z,7.37
2019-05-05T04:07:25.662Z,7.35
2019-05-05T04:12:27.718Z,7.35
2019-05-05T04:17:40.746Z,7.43
2019-05-05T04:22:43.534Z,7.52
2019-05-05T04:27:45.741Z,7.51
2019-05-05T04:32:47.792Z,7.52
2019-05-05T04:37:49.850Z,7.58
2019-05-05T04:42:51.925Z,7.63
2019-05-05T04:47:58.733Z,7.67
2019-05-05T04:53:02.169Z,7.73
2019-05-05T04:58:04.737Z,7.75
2019-05-05T05:03:26.477Z,7.85
2019-05-05T05:08:28.663Z,8.09
2019-05-05T05:13:30.704Z,8.75
2019-05-05T05:18:34.410Z,9.67
2019-05-05T05:23:36.653Z,10.69
2019-05-05T05:28:38.738Z,12.02
2019-05-05T05:33:40.818Z,13.66
2019-05-05T05:38:44.812Z,14.70
2019-05-05T05:44:17.883Z,15.60
2019-05-05T05:49:39.232Z,17.03
2019-05-05T05:54:41.278Z,18.34
2019-05-05T05:59:45.195Z,20.22
2019-05-05T06:04:47.271Z,21.41
2019-05-05T06:09:49.312Z,22.23
2019-05-05T06:14:53.566Z,21.90
2019-05-05T06:19:55.571Z,21.12
2019-05-05T06:24:57.613Z,20.74
2019-05-05T06:29:59.771Z,20.99
2019-05-05T06:35:03.694Z,22.63
2019-05-05T06:40:08.029Z,22.71
2019-05-05T06:45:21.129Z,22.66
2019-05-05T06:50:24.285Z,24.09
2019-05-05T06:55:26.599Z,24.32
2019-05-05T07:00:28.656Z,24.42
2019-05-05T07:05:30.739Z,24.45
2019-05-05T07:10:33.881Z,24.04
2019-05-05T07:15:36.132Z,23.23
2019-05-05T07:20:38.218Z,22.67
2019-05-05T07:25:43.138Z,21.87
2019-05-05T07:30:44.411Z,20.92
2019-05-05T07:36:15.386Z,20.30
2019-05-05T07:41:17.481Z,19.77
2019-05-05T07:46:19.572Z,19.30
2019-05-05T07:51:21.662Z,18.97
2019-05-05T07:56:23.875Z,18.45
2019-05-05T08:01:25.896Z,18.15
2019-05-05T08:06:27.951Z,17.97
2019-05-05T08:11:29.996Z,17.89
2019-05-05T08:16:54.236Z,17.38
2019-05-05T08:21:56.276Z,17.13
2019-05-05T08:27:21.105Z,16.99
2019-05-05T08:32:32.411Z,16.77
2019-05-05T08:37:34.308Z,17.03
2019-05-05T08:42:36.678Z,16.81
2019-05-05T08:47:38.802Z,16.64
2019-05-05T08:52:40.976Z,16.50
2019-05-05T08:57:44.677Z,16.19
2019-05-05T09:02:47.051Z,16.07
2019-05-05T09:07:49.198Z,16.11
2019-05-05T09:12:51.391Z,15.92
2019-05-05T09:17:54.439Z,15.59
2019-05-05T09:22:57.418Z,15.76
2019-05-05T09:28:17.811Z,15.74
2019-05-05T09:33:19.926Z,15.34
2019-05-05T09:38:30.138Z,15.10
2019-05-05T09:43:31.767Z,15.27
2019-05-05T09:48:33.880Z,15.43
2019-05-05T09:53:37.530Z,15.53
2019-05-05T09:58:39.669Z,15.38
2019-05-05T10:03:41.900Z,15.17
2019-05-05T10:08:48.939Z,15.15
2019-05-05T10:13:51.001Z,15.38
2019-05-05T10:18:54.163Z,15.59
2019-05-05T10:24:00.789Z,15.62
2019-05-05T10:29:04.208Z,15.58
2019-05-05T10:34:08.426Z,15.64
2019-05-05T10:39:17.322Z,15.49
2019-05-05T10:44:19.402Z,15.33
2019-05-05T10:49:21.492Z,15.24
2019-05-05T10:54:23.785Z,15.32
2019-05-05T10:59:26.162Z,15.22
2019-05-05T11:04:28.258Z,15.15
2019-05-05T11:09:30.436Z,15.13
2019-05-05T11:14:33.712Z,15.38
2019-05-05T11:19:44.239Z,15.50
2019-05-05T11:24:58.265Z,15.80
2019-05-05T11:30:30.173Z,16.10
2019-05-05T11:36:06.562Z,15.99
2019-05-05T11:41:08.677Z,15.90
2019-05-05T11:46:10.785Z,16.03
2019-05-05T11:51:14.869Z,16.07
2019-05-05T11:56:16.830Z,15.86
2019-05-05T12:01:18.991Z,15.81
2019-05-05T12:06:21.042Z,15.83
2019-05-05T12:11:24.015Z,15.84
2019-05-05T12:16:30.532Z,15.88
2019-05-05T12:21:33.732Z,16.05
2019-05-05T12:26:54.223Z,16.24
2019-05-05T12:31:56.379Z,16.15
2019-05-05T12:36:58.480Z,16.09
2019-05-05T12:42:00.567Z,16.16
2019-05-05T12:47:27.386Z,16.25
2019-05-05T12:52:29.519Z,16.31
2019-05-05T12:57:31.574Z,16.45
2019-05-05T13:02:35.994Z,16.24
2019-05-05T13:07:38.052Z,16.52
2019-05-05T13:12:40.144Z,16.77
2019-05-05T13:17:43.770Z,16.94
2019-05-05T13:23:00.747Z,16.97
2019-05-05T13:28:04.072Z,17.00
2019-05-05T13:33:06.302Z,17.03
2019-05-05T13:38:08.351Z,16.97
2019-05-05T13:43:10.398Z,16.70
2019-05-05T13:48:14.063Z,16.56
2019-05-05T13:53:16.373Z,16.56
2019-05-05T13:58:18.495Z,16.51
2019-05-05T14:03:20.574Z,16.37
2019-05-05T14:08:23.753Z,16.30
2019-05-05T14:13:25.891Z,16.26
2019-05-05T14:18:28.067Z,16.28
2019-05-05T14:23:56.506Z,16.18
2019-05-05T14:28:58.599Z,16.19
2019-05-05T14:34:01.670Z,16.12
2019-05-05T14:39:06.982Z,16.01
2019-05-05T14:44:09.037Z,15.99
2019-05-05T14:49:11.176Z,15.96
2019-05-05T14:54:14.780Z,15.96
2019-05-05T14:59:17.248Z,16.02
2019-05-05T15:04:20.510Z,16.08
2019-05-05T15:09:28.449Z,16.06
2019-05-05T15:14:30.598Z,15.93
2019-05-05T15:19:34.015Z,15.84
2019-05-05T15:24:36.239Z,15.81
2019-05-05T15:29:38.327Z,15.83
2019-05-05T15:34:40.444Z,15.87
2019-05-05T15:39:44.124Z,15.89
2019-05-05T15:44:46.501Z,15.84
2019-05-05T15:49:48.535Z,15.82
2019-05-05T15:54:50.914Z,15.59
2019-05-05T15:59:54.413Z,15.59
2019-05-05T16:04:56.536Z,15.52
2019-05-05T16:09:58.600Z,15.41
2019-05-05T16:15:35.824Z,15.27
2019-05-05T16:20:44.339Z,15.11
2019-05-05T16:25:46.833Z,14.85
2019-05-05T16:30:49.020Z,14.81
2019-05-05T16:35:51.069Z,14.80
2019-05-05T16:40:53.829Z,14.76
2019-05-05T16:45:56.039Z,14.78
2019-05-05T16:50:58.110Z,14.78
2019-05-05T16:56:00.581Z,14.72
2019-05-05T17:01:03.795Z,14.58
2019-05-05T17:06:05.988Z,14.55
2019-05-05T17:11:08.011Z,14.55
2019-05-05T17:16:19.229Z,14.50
2019-05-05T17:21:25.760Z,14.49
2019-05-05T17:26:27.835Z,14.43
2019-05-05T17:31:29.903Z,14.42
2019-05-05T17:36:31.951Z,14.37
2019-05-05T17:41:53.978Z,14.35
2019-05-05T17:47:04.568Z,14.31
2019-05-05T17:52:24.623Z,14.20
2019-05-05T17:57:26.697Z,14.17
2019-05-05T18:02:28.773Z,14.12
2019-05-05T18:07:35.259Z,14.08
2019-05-05T18:12:59.770Z,14.05
2019-05-05T18:18:01.858Z,14.01
2019-05-05T18:23:04.047Z,13.98
2019-05-05T18:28:16.191Z,13.96
2019-05-05T18:33:10.392Z,13.88
2019-05-05T18:38:13.758Z,13.80
2019-05-05T18:43:22.002Z,13.81
2019-05-05T18:48:24.161Z,13.76
2019-05-05T18:53:26.220Z,13.70
2019-05-05T18:58:30.359Z,13.71
2019-05-05T19:03:37.688Z,13.66
2019-05-05T19:08:53.629Z,13.65
2019-05-05T19:13:48.319Z,13.61
2019-05-05T19:18:50.501Z,13.57
2019-05-05T19:23:54.479Z,13.53
2019-05-05T19:28:56.612Z,13.47
2019-05-05T19:33:58.648Z,13.40
2019-05-05T19:39:00.762Z,13.30
2019-05-05T19:44:04.690Z,13.23
2019-05-05T19:49:14.697Z,13.14
2019-05-05T19:54:17.059Z,13.02
2019-05-05T19:59:19.149Z,12.87
2019-05-05T20:04:21.217Z,12.71
2019-05-05T20:09:24.721Z,12.62
2019-05-05T20:14:27.052Z,12.57
2019-05-05T20:19:31.264Z,12.50
2019-05-05T20:24:33.714Z,12.47
2019-05-05T20:29:37.532Z,12.40
2019-05-05T20:34:59.631Z,12.35
2019-05-05T20:40:03.949Z,12.27
2019-05-05T20:45:07.483Z,12.19
2019-05-05T20:50:09.846Z,12.07
2019-05-05T20:55:13.933Z,12.00
2019-05-05T21:00:17.257Z,11.95
2019-05-05T21:05:19.314Z,11.91
2019-05-05T21:10:21.395Z,11.93
2019-05-05T21:15:24.628Z,11.93
2019-05-05T21:20:27.115Z,11.95
2019-05-05T21:25:33.794Z,11.93
2019-05-05T21:30:35.888Z,11.92
2019-05-05T21:35:37.983Z,11.90
2019-05-05T21:40:40.116Z,11.92
2019-05-05T21:45:44.323Z,11.91
2019-05-05T21:50:54.030Z,11.88
2019-05-05T21:56:06.991Z,11.80
2019-05-05T22:01:15.600Z,11.70
2019-05-05T22:06:17.659Z,11.61
2019-05-05T22:11:19.708Z,11.50
2019-05-05T22:16:21.830Z,11.38
2019-05-05T22:21:37.132Z,11.28
2019-05-05T22:26:39.188Z,11.19
2019-05-05T22:31:41.255Z,11.10
2019-05-05T22:36:44.915Z,11.02
2019-05-05T22:41:47.166Z,10.95
2019-05-05T22:46:49.211Z,10.89
2019-05-05T22:51:51.362Z,10.86
2019-05-05T22:56:53.971Z,10.81
2019-05-05T23:01:56.221Z,10.76
2019-05-05T23:07:03.861Z,10.73
2019-05-05T23:12:06.119Z,10.70
2019-05-05T23:17:21.534Z,10.68
2019-05-05T23:22:40.000Z,10.67
2019-05-05T23:27:48.751Z,10.66
2019-05-05T23:32:50.824Z,10.63
2019-05-05T23:37:55.042Z,10.62
2019-05-05T23:42:56.972Z,10.60
2019-05-05T23:47:59.047Z,10.63
2019-05-05T23:53:01.105Z,10.67
2019-05-05T23:58:03.770Z,10.67
